MSC Carolina — 3ECV5 — position and weather

sailwx.info

Track history (hours):
 
Tides and Currents Weather Stations Pressure Air Temp Water Temp Dewpoint Dewpoint Depression Visibility Wind Speed Wind Dir Waves Ship Positions

MSC Carolina

Last reported at 2017-Nov-19 13:47 UTC. Time now 2017-Nov-22 07:28 UTC.
Position N 37°13' W 001°04'.

Length 275 m; draft 11.3 m.

Type: Ship (hazmat cat B). MMSI: 371475000.

Date/timePositionNaut miles runAvg speedWind from/ knotsBaromVisibWave heightAir tempDewpointWater temp
2017-Nov-19 13:47N 37°13' W 001°04'518.6
2017-Nov-19 13:30N 37°16' W 000°59'918.5
2017-Nov-19 13:00N 37°22' W 000°50'918.4
2017-Nov-19 12:30N 37°28' W 000°42'918.3
2017-Nov-19 12:00N 37°35' W 000°33'918.2
2017-Nov-19 11:30N 37°42' W 000°26'918.3
2017-Nov-19 11:00N 37°50' W 000°19'1018.1
2017-Nov-19 10:27N 37°58' W 000°12'  
2017-Nov-16 15:56N 43°15' E 004°60'715.0
2017-Nov-16 15:29N 43°21' E 004°58'3 0.2
2017-Nov-16 03:18N 43°24' E 004°55'413.8
2017-Nov-16 03:01N 43°20' E 004°59'5 9.4
2017-Nov-16 02:29N 43°16' E 005°01'5 9.1
2017-Nov-16 01:59N 43°11' E 005°03'4 9.2
2017-Nov-16 01:30N 43°08' E 005°06'85 8.0
2017-Nov-15 14:50N 43°02' E 007°02'310.4
2017-Nov-15 14:31N 43°05' E 007°05'510.4
2017-Nov-15 13:59N 43°09' E 007°09'510.3
2017-Nov-15 13:30N 43°13' E 007°13'510.4
2017-Nov-15 13:00N 43°17' E 007°19'510.3
2017-Nov-15 12:30N 43°20' E 007°24'510.3
2017-Nov-15 12:00N 43°23' E 007°30'510.4
2017-Nov-15 11:30N 43°26' E 007°35'510.4
2017-Nov-15 11:00N 43°29' E 007°41'611.2
2017-Nov-15 10:29N 43°33' E 007°47'3111.8
2017-Nov-15 07:50N 43°53' E 008°20'411.5
2017-Nov-15 07:30N 43°57' E 008°23'612.0
2017-Nov-15 07:00N 44°02' E 008°27'612.0
2017-Nov-15 06:30N 44°07' E 008°31'611.3
2017-Nov-15 06:00N 44°12' E 008°35'510.9
2017-Nov-15 05:30N 44°17' E 008°39'511.0
2017-Nov-15 05:01N 44°22' E 008°42'5 9.2
2017-Nov-15 04:31N 44°25' E 008°47'0 0.9
2017-Nov-15 04:00N 44°25' E 008°47'0 0.0
2017-Nov-15 03:30N 44°25' E 008°47'0 0.0
2017-Nov-15 03:00N 44°25' E 008°47'0 0.0
2017-Nov-15 02:30N 44°25' E 008°47'0 0.0
2017-Nov-15 02:00N 44°25' E 008°47'0 0.0
2017-Nov-15 01:30N 44°25' E 008°47'0 0.0
2017-Nov-15 01:00N 44°25' E 008°47'0 0.0
2017-Nov-15 00:30N 44°25' E 008°47'0 0.0
2017-Nov-15 00:00N 44°25' E 008°47'0 0.0
2017-Nov-14 23:30N 44°25' E 008°47'0 0.0
2017-Nov-14 23:00N 44°25' E 008°47'0 0.0
2017-Nov-14 22:30N 44°25' E 008°47'0 0.0
2017-Nov-14 22:00N 44°25' E 008°47'0 0.0
2017-Nov-14 21:30N 44°25' E 008°47'0 0.0
2017-Nov-14 21:00N 44°25' E 008°47'0 0.0
2017-Nov-14 20:30N 44°25' E 008°47'0 0.0
2017-Nov-14 20:00N 44°25' E 008°47'0 0.0
2017-Nov-14 19:27N 44°25' E 008°47'0 0.0
2017-Nov-14 18:57N 44°25' E 008°47'0 0.0
2017-Nov-14 18:30N 44°25' E 008°47'0 0.0
2017-Nov-14 17:57N 44°25' E 008°47'0 0.0
2017-Nov-14 17:27N 44°25' E 008°47'0 0.0
2017-Nov-14 16:57N 44°25' E 008°47'0 0.0
2017-Nov-14 16:30N 44°25' E 008°47'0 0.0
2017-Nov-14 16:00N 44°25' E 008°47'0 0.0
2017-Nov-14 15:27N 44°25' E 008°47'0 0.0
2017-Nov-14 15:00N 44°25' E 008°47'0 0.0
2017-Nov-14 14:30N 44°25' E 008°47'0 0.0
2017-Nov-14 14:00N 44°25' E 008°47'0 0.0
2017-Nov-14 13:27N 44°25' E 008°47'0 0.0
2017-Nov-14 13:00N 44°25' E 008°47'0 0.1
2017-Nov-14 12:30N 44°25' E 008°47'2 4.0
2017-Nov-14 12:01N 44°24' E 008°45'611.5
2017-Nov-14 11:31N 44°18' E 008°42'4 7.5
2017-Nov-14 11:01N 44°16' E 008°46'1 1.6
2017-Nov-14 10:31N 44°16' E 008°45'1 1.5
2017-Nov-14 10:01N 44°17' E 008°45'1 1.7
2017-Nov-14 09:31N 44°18' E 008°44'1 1.6
2017-Nov-14 09:00N 44°18' E 008°44'1 1.5
2017-Nov-14 08:31N 44°19' E 008°43'0 0.8
2017-Nov-14 08:01N 44°19' E 008°44'3 6.4
2017-Nov-14 07:31N 44°17' E 008°46'4 7.1
2017-Nov-14 07:00N 44°13' E 008°48'4 8.5
2017-Nov-14 06:30N 44°10' E 008°51'5 9.6
2017-Nov-14 06:01N 44°05' E 008°54'5 9.7
2017-Nov-14 05:31N 44°01' E 008°57'5 9.6
2017-Nov-14 05:01N 43°57' E 009°00'5 9.5
2017-Nov-14 04:30N 43°52' E 009°03'5 9.4
2017-Nov-14 04:01N 43°48' E 009°06'5 9.5
2017-Nov-14 03:30N 43°44' E 009°09'5 9.7
2017-Nov-14 03:01N 43°40' E 009°12'5 9.8
2017-Nov-14 02:30N 43°35' E 009°15'5 9.4
2017-Nov-14 02:01N 43°31' E 009°18'5 9.1
2017-Nov-14 01:31N 43°27' E 009°20'5 9.3
2017-Nov-14 01:01N 43°23' E 009°23'5 9.3
2017-Nov-14 00:31N 43°19' E 009°27'5 9.5
2017-Nov-14 00:00N 43°15' E 009°30'5 9.5
2017-Nov-13 23:31N 43°10' E 009°33'5 9.1
2017-Nov-13 23:01N 43°06' E 009°36'5 9.0
2017-Nov-13 22:30N 43°02' E 009°38'5 9.3
2017-Nov-13 22:00N 42°58' E 009°41'315 9.5
2017-Nov-12 12:55N 39°18' E 014°41'410.5
2017-Nov-12 12:30N 39°15' E 014°45'3410.5
2017-Nov-12 09:16N 38°53' E 015°19'510.2
2017-Nov-12 08:48N 38°50' E 015°23'410.2
2017-Nov-12 08:24N 38°47' E 015°26'610.3
2017-Nov-12 07:51N 38°43' E 015°32'410.5
2017-Nov-12 07:27N 38°40' E 015°35'510.8
2017-Nov-12 07:00N 38°36' E 015°40'612.1
2017-Nov-12 06:30N 38°32' E 015°45'612.2
2017-Nov-12 06:01N 38°28' E 015°51'3 5.7
2017-Nov-12 05:30N 38°28' E 015°54'0 0.4
2017-Nov-12 05:01N 38°28' E 015°55'0 0.0
2017-Nov-12 04:31N 38°28' E 015°55'0 0.0
2017-Nov-12 04:01N 38°28' E 015°55'0 0.0
2017-Nov-12 03:31N 38°28' E 015°55'0 0.0
2017-Nov-12 03:01N 38°28' E 015°55'0 0.0
2017-Nov-12 02:30N 38°28' E 015°55'0 0.0
2017-Nov-12 02:01N 38°28' E 015°55'0 0.0
2017-Nov-12 01:30N 38°28' E 015°55'0 0.0
2017-Nov-12 01:00N 38°28' E 015°55'0 0.0
2017-Nov-12 00:30N 38°28' E 015°55'0 0.0
2017-Nov-12 00:01N 38°28' E 015°55'0 0.0
2017-Nov-11 23:31N 38°28' E 015°55'0 0.0
2017-Nov-11 23:01N 38°28' E 015°55'0 0.0
2017-Nov-11 22:30N 38°28' E 015°55'0 0.0
2017-Nov-11 22:01N 38°28' E 015°55'0 0.0
2017-Nov-11 21:31N 38°28' E 015°55'0 0.0
2017-Nov-11 21:01N 38°28' E 015°55'0 0.0
2017-Nov-11 20:30N 38°28' E 015°55'0 0.0
2017-Nov-11 20:00N 38°28' E 015°55'0 0.0
2017-Nov-11 19:31N 38°28' E 015°55'0 0.0
2017-Nov-11 19:01N 38°28' E 015°55'0 0.1
2017-Nov-11 18:31N 38°28' E 015°55'0 0.0
2017-Nov-11 18:01N 38°28' E 015°55'0 0.0
2017-Nov-11 17:30N 38°28' E 015°55'0 0.0
2017-Nov-11 17:00N 38°28' E 015°55'0 0.0
2017-Nov-11 16:30N 38°28' E 015°55'0 0.0
2017-Nov-11 16:01N 38°28' E 015°55'0 0.0
2017-Nov-11 15:30N 38°28' E 015°55'0 0.0
2017-Nov-11 15:00N 38°28' E 015°55'0 0.0
2017-Nov-11 14:31N 38°28' E 015°55'0 0.0
2017-Nov-11 14:01N 38°28' E 015°55'0 0.0
2017-Nov-11 13:31N 38°28' E 015°55'0 0.0
2017-Nov-11 13:00N 38°28' E 015°55'0 0.0
2017-Nov-11 12:31N 38°28' E 015°55'0 0.0
2017-Nov-11 12:01N 38°28' E 015°55'0 0.0
2017-Nov-11 11:30N 38°28' E 015°55'0 0.0
2017-Nov-11 11:01N 38°28' E 015°55'0 0.0
2017-Nov-11 10:31N 38°28' E 015°55'0 0.0
2017-Nov-11 10:01N 38°28' E 015°55'0 0.0
2017-Nov-11 09:30N 38°28' E 015°55'0 0.0
2017-Nov-11 09:00N 38°28' E 015°55'0 0.0
2017-Nov-11 08:30N 38°28' E 015°55'0 0.0
2017-Nov-11 08:00N 38°28' E 015°55'0 0.0
2017-Nov-11 07:30N 38°28' E 015°55'0 0.0
2017-Nov-11 07:00N 38°28' E 015°55'0 0.0
2017-Nov-11 06:30N 38°28' E 015°55'0 0.0
2017-Nov-11 06:01N 38°28' E 015°55'0 0.0
2017-Nov-11 05:31N 38°28' E 015°55'0 0.0
2017-Nov-11 05:01N 38°28' E 015°55'0 0.0
2017-Nov-11 04:31N 38°28' E 015°55'0 0.0
2017-Nov-11 04:01N 38°28' E 015°55'0 0.0
2017-Nov-11 03:31N 38°28' E 015°55'0 0.0
2017-Nov-11 03:01N 38°28' E 015°55'0 0.0
2017-Nov-11 02:30N 38°28' E 015°55'0 0.0
2017-Nov-11 02:01N 38°28' E 015°55'0 0.0
2017-Nov-11 01:31N 38°28' E 015°55'0 0.0
2017-Nov-11 01:01N 38°28' E 015°55'0 0.0
2017-Nov-11 00:31N 38°28' E 015°55'0 0.0
2017-Nov-11 00:01N 38°28' E 015°55'0 0.0
2017-Nov-10 23:30N 38°28' E 015°55'0 0.0
2017-Nov-10 23:01N 38°28' E 015°55'0 0.0
2017-Nov-10 22:31N 38°28' E 015°55'0 0.0
2017-Nov-10 22:00N 38°28' E 015°55'0 0.0
2017-Nov-10 21:31N 38°28' E 015°55'0 0.0
2017-Nov-10 21:01N 38°28' E 015°55'0 0.0
2017-Nov-10 20:31N 38°28' E 015°55'0 0.0
2017-Nov-10 20:01N 38°28' E 015°55'0 0.0
2017-Nov-10 19:31N 38°28' E 015°55'0 0.0
2017-Nov-10 19:01N 38°28' E 015°55'0 0.0
2017-Nov-10 18:31N 38°28' E 015°55'0 0.0
2017-Nov-10 18:00N 38°28' E 015°55'0 0.0
2017-Nov-10 17:31N 38°28' E 015°55'0 0.0
2017-Nov-10 17:01N 38°28' E 015°55'0 0.0
2017-Nov-10 16:31N 38°28' E 015°55'0 0.0
2017-Nov-10 16:01N 38°28' E 015°55'0 0.0
2017-Nov-10 15:31N 38°28' E 015°55'0 0.0
2017-Nov-10 15:00N 38°28' E 015°55'0 0.0
2017-Nov-10 14:30N 38°28' E 015°55'0 0.6
2017-Nov-10 14:01N 38°27' E 015°54'1 2.4
2017-Nov-10 13:31N 38°27' E 015°53'612.7
2017-Nov-10 13:00N 38°22' E 015°47'815.4
2017-Nov-10 12:30N 38°16' E 015°42'714.7
2017-Nov-10 12:01N 38°10' E 015°36'612.8
2017-Nov-10 11:30N 38°04' E 015°36'713.8
2017-Nov-10 11:01N 37°57' E 015°38'1019.7
2017-Nov-10 10:31N 37°50' E 015°46'1020.1
2017-Nov-10 10:00N 37°46' E 015°58'1020.2
2017-Nov-10 09:31N 37°42' E 016°10'  
Track history (hours):
 
Tides and Currents Weather Stations Pressure Air Temp Water Temp Dewpoint Dewpoint Depression Visibility Wind Speed Wind Dir Waves Ship Positions

MSC Carolina

Last reported at 2017-Nov-19 13:47 UTC. Time now 2017-Nov-22 07:28 UTC.
Position N 37°13' W 001°04'.

Length 275 m; draft 11.3 m.

Type: Ship (hazmat cat B). MMSI: 371475000.

Date/timePositionNaut miles runAvg speedWind from/ knotsBaromVisibWave heightAir tempDewpointWater temp
2017-Nov-19 13:47N 37°13' W 001°04'518.6
2017-Nov-19 13:30N 37°16' W 000°59'918.5
2017-Nov-19 13:00N 37°22' W 000°50'918.4
2017-Nov-19 12:30N 37°28' W 000°42'918.3
2017-Nov-19 12:00N 37°35' W 000°33'918.2
2017-Nov-19 11:30N 37°42' W 000°26'918.3
2017-Nov-19 11:00N 37°50' W 000°19'1018.1
2017-Nov-19 10:27N 37°58' W 000°12'  
2017-Nov-16 15:56N 43°15' E 004°60'715.0
2017-Nov-16 15:29N 43°21' E 004°58'3 0.2
2017-Nov-16 03:18N 43°24' E 004°55'413.8
2017-Nov-16 03:01N 43°20' E 004°59'5 9.4
2017-Nov-16 02:29N 43°16' E 005°01'5 9.1
2017-Nov-16 01:59N 43°11' E 005°03'4 9.2
2017-Nov-16 01:30N 43°08' E 005°06'85 8.0
2017-Nov-15 14:50N 43°02' E 007°02'310.4
2017-Nov-15 14:31N 43°05' E 007°05'510.4
2017-Nov-15 13:59N 43°09' E 007°09'510.3
2017-Nov-15 13:30N 43°13' E 007°13'510.4
2017-Nov-15 13:00N 43°17' E 007°19'510.3
2017-Nov-15 12:30N 43°20' E 007°24'510.3
2017-Nov-15 12:00N 43°23' E 007°30'510.4
2017-Nov-15 11:30N 43°26' E 007°35'510.4
2017-Nov-15 11:00N 43°29' E 007°41'611.2
2017-Nov-15 10:29N 43°33' E 007°47'3111.8
2017-Nov-15 07:50N 43°53' E 008°20'411.5
2017-Nov-15 07:30N 43°57' E 008°23'612.0
2017-Nov-15 07:00N 44°02' E 008°27'612.0
2017-Nov-15 06:30N 44°07' E 008°31'611.3
2017-Nov-15 06:00N 44°12' E 008°35'510.9
2017-Nov-15 05:30N 44°17' E 008°39'511.0
2017-Nov-15 05:01N 44°22' E 008°42'5 9.2
2017-Nov-15 04:31N 44°25' E 008°47'0 0.9
2017-Nov-15 04:00N 44°25' E 008°47'0 0.0
2017-Nov-15 03:30N 44°25' E 008°47'0 0.0
2017-Nov-15 03:00N 44°25' E 008°47'0 0.0
2017-Nov-15 02:30N 44°25' E 008°47'0 0.0
2017-Nov-15 02:00N 44°25' E 008°47'0 0.0
2017-Nov-15 01:30N 44°25' E 008°47'0 0.0
2017-Nov-15 01:00N 44°25' E 008°47'0 0.0
2017-Nov-15 00:30N 44°25' E 008°47'0 0.0
2017-Nov-15 00:00N 44°25' E 008°47'0 0.0
2017-Nov-14 23:30N 44°25' E 008°47'0 0.0
2017-Nov-14 23:00N 44°25' E 008°47'0 0.0
2017-Nov-14 22:30N 44°25' E 008°47'0 0.0
2017-Nov-14 22:00N 44°25' E 008°47'0 0.0
2017-Nov-14 21:30N 44°25' E 008°47'0 0.0
2017-Nov-14 21:00N 44°25' E 008°47'0 0.0
2017-Nov-14 20:30N 44°25' E 008°47'0 0.0
2017-Nov-14 20:00N 44°25' E 008°47'0 0.0
2017-Nov-14 19:27N 44°25' E 008°47'0 0.0
2017-Nov-14 18:57N 44°25' E 008°47'0 0.0
2017-Nov-14 18:30N 44°25' E 008°47'0 0.0
2017-Nov-14 17:57N 44°25' E 008°47'0 0.0
2017-Nov-14 17:27N 44°25' E 008°47'0 0.0
2017-Nov-14 16:57N 44°25' E 008°47'0 0.0
2017-Nov-14 16:30N 44°25' E 008°47'0 0.0
2017-Nov-14 16:00N 44°25' E 008°47'0 0.0
2017-Nov-14 15:27N 44°25' E 008°47'0 0.0
2017-Nov-14 15:00N 44°25' E 008°47'0 0.0
2017-Nov-14 14:30N 44°25' E 008°47'0 0.0
2017-Nov-14 14:00N 44°25' E 008°47'0 0.0
2017-Nov-14 13:27N 44°25' E 008°47'0 0.0
2017-Nov-14 13:00N 44°25' E 008°47'0 0.1
2017-Nov-14 12:30N 44°25' E 008°47'2 4.0
2017-Nov-14 12:01N 44°24' E 008°45'611.5
2017-Nov-14 11:31N 44°18' E 008°42'4 7.5
2017-Nov-14 11:01N 44°16' E 008°46'1 1.6
2017-Nov-14 10:31N 44°16' E 008°45'1 1.5
2017-Nov-14 10:01N 44°17' E 008°45'1 1.7
2017-Nov-14 09:31N 44°18' E 008°44'1 1.6
2017-Nov-14 09:00N 44°18' E 008°44'1 1.5
2017-Nov-14 08:31N 44°19' E 008°43'0 0.8
2017-Nov-14 08:01N 44°19' E 008°44'3 6.4
2017-Nov-14 07:31N 44°17' E 008°46'4 7.1
2017-Nov-14 07:00N 44°13' E 008°48'4 8.5
2017-Nov-14 06:30N 44°10' E 008°51'5 9.6
2017-Nov-14 06:01N 44°05' E 008°54'5 9.7
2017-Nov-14 05:31N 44°01' E 008°57'5 9.6
2017-Nov-14 05:01N 43°57' E 009°00'5 9.5
2017-Nov-14 04:30N 43°52' E 009°03'5 9.4
2017-Nov-14 04:01N 43°48' E 009°06'5 9.5
2017-Nov-14 03:30N 43°44' E 009°09'5 9.7
2017-Nov-14 03:01N 43°40' E 009°12'5 9.8
2017-Nov-14 02:30N 43°35' E 009°15'5 9.4
2017-Nov-14 02:01N 43°31' E 009°18'5 9.1
2017-Nov-14 01:31N 43°27' E 009°20'5 9.3
2017-Nov-14 01:01N 43°23' E 009°23'5 9.3
2017-Nov-14 00:31N 43°19' E 009°27'5 9.5
2017-Nov-14 00:00N 43°15' E 009°30'5 9.5
2017-Nov-13 23:31N 43°10' E 009°33'5 9.1
2017-Nov-13 23:01N 43°06' E 009°36'5 9.0
2017-Nov-13 22:30N 43°02' E 009°38'5 9.3
2017-Nov-13 22:00N 42°58' E 009°41'315 9.5
2017-Nov-12 12:55N 39°18' E 014°41'410.5
2017-Nov-12 12:30N 39°15' E 014°45'3410.5
2017-Nov-12 09:16N 38°53' E 015°19'510.2
2017-Nov-12 08:48N 38°50' E 015°23'410.2
2017-Nov-12 08:24N 38°47' E 015°26'610.3
2017-Nov-12 07:51N 38°43' E 015°32'410.5
2017-Nov-12 07:27N 38°40' E 015°35'510.8
2017-Nov-12 07:00N 38°36' E 015°40'612.1
2017-Nov-12 06:30N 38°32' E 015°45'612.2
2017-Nov-12 06:01N 38°28' E 015°51'3 5.7
2017-Nov-12 05:30N 38°28' E 015°54'0 0.4
2017-Nov-12 05:01N 38°28' E 015°55'0 0.0
2017-Nov-12 04:31N 38°28' E 015°55'0 0.0
2017-Nov-12 04:01N 38°28' E 015°55'0 0.0
2017-Nov-12 03:31N 38°28' E 015°55'0 0.0
2017-Nov-12 03:01N 38°28' E 015°55'0 0.0
2017-Nov-12 02:30N 38°28' E 015°55'0 0.0
2017-Nov-12 02:01N 38°28' E 015°55'0 0.0
2017-Nov-12 01:30N 38°28' E 015°55'0 0.0
2017-Nov-12 01:00N 38°28' E 015°55'0 0.0
2017-Nov-12 00:30N 38°28' E 015°55'0 0.0
2017-Nov-12 00:01N 38°28' E 015°55'0 0.0
2017-Nov-11 23:31N 38°28' E 015°55'0 0.0
2017-Nov-11 23:01N 38°28' E 015°55'0 0.0
2017-Nov-11 22:30N 38°28' E 015°55'0 0.0
2017-Nov-11 22:01N 38°28' E 015°55'0 0.0
2017-Nov-11 21:31N 38°28' E 015°55'0 0.0
2017-Nov-11 21:01N 38°28' E 015°55'0 0.0
2017-Nov-11 20:30N 38°28' E 015°55'0 0.0
2017-Nov-11 20:00N 38°28' E 015°55'0 0.0
2017-Nov-11 19:31N 38°28' E 015°55'0 0.0
2017-Nov-11 19:01N 38°28' E 015°55'0 0.1
2017-Nov-11 18:31N 38°28' E 015°55'0 0.0
2017-Nov-11 18:01N 38°28' E 015°55'0 0.0
2017-Nov-11 17:30N 38°28' E 015°55'0 0.0
2017-Nov-11 17:00N 38°28' E 015°55'0 0.0
2017-Nov-11 16:30N 38°28' E 015°55'0 0.0
2017-Nov-11 16:01N 38°28' E 015°55'0 0.0
2017-Nov-11 15:30N 38°28' E 015°55'0 0.0
2017-Nov-11 15:00N 38°28' E 015°55'0 0.0
2017-Nov-11 14:31N 38°28' E 015°55'0 0.0
2017-Nov-11 14:01N 38°28' E 015°55'0 0.0
2017-Nov-11 13:31N 38°28' E 015°55'0 0.0
2017-Nov-11 13:00N 38°28' E 015°55'0 0.0
2017-Nov-11 12:31N 38°28' E 015°55'0 0.0
2017-Nov-11 12:01N 38°28' E 015°55'0 0.0
2017-Nov-11 11:30N 38°28' E 015°55'0 0.0
2017-Nov-11 11:01N 38°28' E 015°55'0 0.0
2017-Nov-11 10:31N 38°28' E 015°55'0 0.0
2017-Nov-11 10:01N 38°28' E 015°55'0 0.0
2017-Nov-11 09:30N 38°28' E 015°55'0 0.0
2017-Nov-11 09:00N 38°28' E 015°55'0 0.0
2017-Nov-11 08:30N 38°28' E 015°55'0 0.0
2017-Nov-11 08:00N 38°28' E 015°55'0 0.0
2017-Nov-11 07:30N 38°28' E 015°55'0 0.0
2017-Nov-11 07:00N 38°28' E 015°55'0 0.0
2017-Nov-11 06:30N 38°28' E 015°55'0 0.0
2017-Nov-11 06:01N 38°28' E 015°55'0 0.0
2017-Nov-11 05:31N 38°28' E 015°55'0 0.0
2017-Nov-11 05:01N 38°28' E 015°55'0 0.0
2017-Nov-11 04:31N 38°28' E 015°55'0 0.0
2017-Nov-11 04:01N 38°28' E 015°55'0 0.0
2017-Nov-11 03:31N 38°28' E 015°55'0 0.0
2017-Nov-11 03:01N 38°28' E 015°55'0 0.0
2017-Nov-11 02:30N 38°28' E 015°55'0 0.0
2017-Nov-11 02:01N 38°28' E 015°55'0 0.0
2017-Nov-11 01:31N 38°28' E 015°55'0 0.0
2017-Nov-11 01:01N 38°28' E 015°55'0 0.0
2017-Nov-11 00:31N 38°28' E 015°55'0 0.0
2017-Nov-11 00:01N 38°28' E 015°55'0 0.0
2017-Nov-10 23:30N 38°28' E 015°55'0 0.0
2017-Nov-10 23:01N 38°28' E 015°55'0 0.0
2017-Nov-10 22:31N 38°28' E 015°55'0 0.0
2017-Nov-10 22:00N 38°28' E 015°55'0 0.0
2017-Nov-10 21:31N 38°28' E 015°55'0 0.0
2017-Nov-10 21:01N 38°28' E 015°55'0 0.0
2017-Nov-10 20:31N 38°28' E 015°55'0 0.0
2017-Nov-10 20:01N 38°28' E 015°55'0 0.0
2017-Nov-10 19:31N 38°28' E 015°55'0 0.0
2017-Nov-10 19:01N 38°28' E 015°55'0 0.0
2017-Nov-10 18:31N 38°28' E 015°55'0 0.0
2017-Nov-10 18:00N 38°28' E 015°55'0 0.0
2017-Nov-10 17:31N 38°28' E 015°55'0 0.0
2017-Nov-10 17:01N 38°28' E 015°55'0 0.0
2017-Nov-10 16:31N 38°28' E 015°55'0 0.0
2017-Nov-10 16:01N 38°28' E 015°55'0 0.0
2017-Nov-10 15:31N 38°28' E 015°55'0 0.0
2017-Nov-10 15:00N 38°28' E 015°55'0 0.0
2017-Nov-10 14:30N 38°28' E 015°55'0 0.6
2017-Nov-10 14:01N 38°27' E 015°54'1 2.4
2017-Nov-10 13:31N 38°27' E 015°53'612.7
2017-Nov-10 13:00N 38°22' E 015°47'815.4
2017-Nov-10 12:30N 38°16' E 015°42'714.7
2017-Nov-10 12:01N 38°10' E 015°36'612.8
2017-Nov-10 11:30N 38°04' E 015°36'713.8
2017-Nov-10 11:01N 37°57' E 015°38'1019.7
2017-Nov-10 10:31N 37°50' E 015°46'1020.1
2017-Nov-10 10:00N 37°46' E 015°58'1020.2
2017-Nov-10 09:31N 37°42' E 016°10'  

Dump ship's entire track history